createdAt,value
2023-01-29T00:00:58.061Z,49.98
2023-01-29T00:03:57.591Z,49.98
2023-01-29T00:06:57.222Z,49.98
2023-01-29T00:09:57.685Z,49.98
2023-01-29T00:12:57.143Z,49.98
2023-01-29T00:15:57.131Z,49.98
2023-01-29T00:18:56.958Z,49.98
2023-01-29T00:21:56.962Z,49.98
2023-01-29T00:24:57.340Z,49.98
2023-01-29T00:27:57.127Z,49.98
2023-01-29T00:30:57.549Z,49.98
2023-01-29T00:33:57.258Z,49.98
2023-01-29T00:36:57.568Z,49.98
2023-01-29T00:39:57.471Z,49.98
2023-01-29T00:42:56.597Z,49.98
2023-01-29T00:45:57.369Z,49.98
2023-01-29T00:48:56.665Z,49.98
2023-01-29T00:51:57.165Z,49.98
2023-01-29T00:54:57.367Z,49.98
2023-01-29T00:57:57.836Z,49.98
2023-01-29T01:00:57.343Z,49.98
2023-01-29T01:03:57.881Z,49.98
2023-01-29T01:06:57.184Z,49.98
2023-01-29T01:09:57.518Z,49.98
2023-01-29T01:12:57.023Z,49.98
2023-01-29T01:15:57.838Z,49.98
2023-01-29T01:18:57.294Z,49.98
2023-01-29T01:21:57.581Z,49.98
2023-01-29T01:24:56.839Z,49.98
2023-01-29T01:27:57.781Z,49.98
2023-01-29T01:30:57.997Z,49.98
2023-01-29T01:33:57.277Z,49.98
2023-01-29T01:36:57.603Z,49.98
2023-01-29T01:39:57.590Z,49.98
2023-01-29T01:42:57.139Z,49.98
2023-01-29T01:45:58.101Z,49.98
2023-01-29T01:48:57.148Z,49.98
2023-01-29T01:51:56.692Z,49.98
2023-01-29T01:54:57.228Z,49.98
2023-01-29T01:57:57.018Z,49.98
2023-01-29T02:00:57.862Z,49.98
2023-01-29T02:03:57.454Z,49.98
2023-01-29T02:06:59.639Z,49.98
2023-01-29T02:09:57.647Z,49.98
2023-01-29T02:12:57.232Z,49.98
2023-01-29T02:15:57.612Z,49.98
2023-01-29T02:18:56.961Z,49.98
2023-01-29T02:21:57.041Z,49.98
2023-01-29T02:24:57.161Z,49.98
2023-01-29T02:27:57.731Z,49.98
2023-01-29T02:30:57.503Z,49.98
2023-01-29T02:33:57.558Z,49.98
2023-01-29T02:36:57.608Z,49.98
2023-01-29T02:39:58.097Z,49.98
2023-01-29T02:42:56.690Z,49.98
2023-01-29T02:45:57.728Z,49.98
2023-01-29T02:48:57.231Z,49.98
2023-01-29T02:51:56.878Z,49.98
2023-01-29T02:54:57.222Z,49.98
2023-01-29T02:57:57.359Z,49.98
2023-01-29T03:00:58.467Z,49.98
2023-01-29T03:03:56.994Z,49.98
2023-01-29T03:06:57.366Z,49.98
2023-01-29T03:09:57.749Z,49.98
2023-01-29T03:12:57.436Z,49.98
2023-01-29T03:15:56.980Z,49.98
2023-01-29T03:18:57.112Z,49.98
2023-01-29T03:21:57.456Z,49.98
2023-01-29T03:24:57.825Z,49.98
2023-01-29T03:27:57.114Z,49.98
2023-01-29T03:30:57.672Z,49.98
2023-01-29T03:33:57.825Z,49.98
2023-01-29T03:36:57.216Z,49.98
2023-01-29T03:39:57.394Z,49.98
2023-01-29T03:42:57.899Z,49.98
2023-01-29T03:45:57.872Z,49.98
2023-01-29T03:48:56.813Z,49.98
2023-01-29T03:51:56.841Z,49.98
2023-01-29T03:54:56.889Z,49.98
2023-01-29T03:57:56.997Z,49.98
2023-01-29T04:00:57.742Z,49.98
2023-01-29T04:03:57.238Z,49.98
2023-01-29T04:06:57.240Z,49.98
2023-01-29T04:09:57.981Z,49.98
2023-01-29T04:12:57.506Z,49.98
2023-01-29T04:15:57.476Z,49.98
2023-01-29T04:18:57.640Z,49.98
2023-01-29T04:21:57.352Z,49.98
2023-01-29T04:24:56.809Z,49.98
2023-01-29T04:27:56.715Z,49.98
2023-01-29T04:30:57.497Z,49.98
2023-01-29T04:33:56.594Z,49.98
2023-01-29T04:36:57.115Z,49.98
2023-01-29T04:39:57.594Z,49.98
2023-01-29T04:42:57.204Z,49.98
2023-01-29T04:45:57.045Z,49.98
2023-01-29T04:48:57.219Z,49.98
2023-01-29T04:51:56.920Z,49.98
2023-01-29T04:54:57.504Z,49.98
2023-01-29T04:57:57.436Z,49.98
2023-01-29T05:00:58.484Z,49.98
2023-01-29T05:03:56.881Z,49.98
2023-01-29T05:06:57.657Z,49.98
2023-01-29T05:09:57.510Z,49.98
2023-01-29T05:12:56.948Z,49.98
2023-01-29T05:15:57.767Z,49.98
2023-01-29T05:18:57.511Z,49.98
2023-01-29T05:21:56.751Z,49.98
2023-01-29T05:24:56.816Z,49.98
2023-01-29T05:27:57.469Z,49.98
2023-01-29T05:30:58.552Z,49.98
2023-01-29T05:33:57.535Z,49.98
2023-01-29T05:36:57.297Z,49.98
2023-01-29T05:39:57.759Z,49.98
2023-01-29T05:42:57.065Z,49.98
2023-01-29T05:45:57.439Z,49.98
2023-01-29T05:48:57.145Z,49.98
2023-01-29T05:51:57.614Z,49.98
2023-01-29T05:54:57.087Z,49.98
2023-01-29T05:57:57.156Z,49.98
2023-01-29T06:00:57.325Z,49.98
2023-01-29T06:03:57.368Z,49.98
2023-01-29T06:06:57.939Z,49.98
2023-01-29T06:09:57.346Z,49.98
2023-01-29T06:12:57.822Z,49.98
2023-01-29T06:15:57.348Z,49.98
2023-01-29T06:18:56.780Z,49.98
2023-01-29T06:21:56.902Z,49.98
2023-01-29T06:24:57.167Z,49.98
2023-01-29T06:27:59.540Z,49.98
2023-01-29T06:31:01.263Z,49.98
2023-01-29T06:33:57.421Z,49.98
2023-01-29T06:36:56.842Z,49.98
2023-01-29T06:39:57.648Z,49.98
2023-01-29T06:42:57.031Z,49.98
2023-01-29T06:45:58.220Z,49.98
2023-01-29T06:48:57.297Z,49.98
2023-01-29T06:51:56.737Z,49.98
2023-01-29T06:54:57.846Z,49.98
2023-01-29T06:57:57.198Z,49.98
2023-01-29T07:00:58.118Z,49.98
2023-01-29T07:03:57.658Z,49.98
2023-01-29T07:06:57.290Z,50
2023-01-29T07:09:57.800Z,50.01
2023-01-29T07:12:57.844Z,49.98
2023-01-29T07:15:57.142Z,50
2023-01-29T07:18:57.903Z,49.98
2023-01-29T07:21:57.754Z,50
2023-01-29T07:24:57.742Z,50
2023-01-29T07:27:59.230Z,50.01
2023-01-29T07:30:57.790Z,50
2023-01-29T07:33:56.855Z,50
2023-01-29T07:36:57.142Z,50.01
2023-01-29T07:39:57.637Z,50
2023-01-29T07:42:58.116Z,50.01
2023-01-29T07:45:58.145Z,49.96
2023-01-29T07:48:57.017Z,49.98
2023-01-29T07:51:57.337Z,49.97
2023-01-29T07:54:57.706Z,49.99
2023-01-29T07:57:56.760Z,49.98
2023-01-29T08:00:57.598Z,49.99
2023-01-29T08:03:57.078Z,49.98
2023-01-29T08:06:57.408Z,49.97
2023-01-29T08:09:57.789Z,49.99
2023-01-29T08:12:57.490Z,49.96
2023-01-29T08:15:58.183Z,50
2023-01-29T08:18:58.107Z,50
2023-01-29T08:21:56.873Z,49.99
2023-01-29T08:25:06.313Z,50.01
2023-01-29T08:27:57.875Z,50.01
2023-01-29T08:30:57.168Z,50
2023-01-29T08:33:57.685Z,50.01
2023-01-29T08:36:57.806Z,50
2023-01-29T08:39:57.789Z,50.01
2023-01-29T08:42:58.227Z,50.01
2023-01-29T08:45:57.950Z,49.99
2023-01-29T08:48:57.162Z,49.99
2023-01-29T08:51:57.629Z,50.01
2023-01-29T08:54:57.447Z,50.02
2023-01-29T08:57:57.809Z,50.01
2023-01-29T09:00:57.468Z,49.98
2023-01-29T09:03:57.453Z,49.97
2023-01-29T09:06:57.304Z,49.99
2023-01-29T09:09:57.780Z,50
2023-01-29T09:12:57.019Z,50.01
2023-01-29T09:15:57.998Z,50.02
2023-01-29T09:18:57.400Z,50.01
2023-01-29T09:21:56.979Z,50
2023-01-29T09:24:57.187Z,50.03
2023-01-29T09:27:57.829Z,50.01
2023-01-29T09:30:57.773Z,50
2023-01-29T09:33:57.859Z,50
2023-01-29T09:36:57.309Z,50.03
2023-01-29T09:39:57.276Z,50.02
2023-01-29T09:42:57.890Z,50.01
2023-01-29T09:45:57.502Z,50.01
2023-01-29T09:48:57.526Z,50
2023-01-29T09:51:57.813Z,49.99
2023-01-29T09:54:56.847Z,50.01
2023-01-29T09:57:57.611Z,49.99
2023-01-29T10:00:58.646Z,49.98
2023-01-29T10:03:57.037Z,49.98
2023-01-29T10:07:00.606Z,50.01
2023-01-29T10:09:58.401Z,50
2023-01-29T10:12:57.603Z,50
2023-01-29T10:15:57.469Z,50
2023-01-29T10:18:57.557Z,49.99
2023-01-29T10:21:57.592Z,49.98
2023-01-29T10:24:57.357Z,49.99
2023-01-29T10:27:57.161Z,49.99
2023-01-29T10:30:58.042Z,49.99
2023-01-29T10:34:02.633Z,49.98
2023-01-29T10:36:56.950Z,49.99
2023-01-29T10:39:57.575Z,50
2023-01-29T10:42:57.338Z,50
2023-01-29T10:45:57.304Z,49.99
2023-01-29T10:48:57.711Z,50.01
2023-01-29T10:51:57.498Z,50
2023-01-29T10:54:57.729Z,49.99
2023-01-29T10:57:57.465Z,49.99
2023-01-29T11:00:57.410Z,49.97
2023-01-29T11:04:16.804Z,49.99
2023-01-29T11:06:57.688Z,49.99
2023-01-29T11:09:57.579Z,49.99
2023-01-29T11:12:57.494Z,50.01
2023-01-29T11:15:57.159Z,49.98
2023-01-29T11:18:56.709Z,50
2023-01-29T11:21:57.559Z,50
2023-01-29T11:24:57.571Z,50.01
2023-01-29T11:27:57.307Z,50
2023-01-29T11:30:57.621Z,49.98
2023-01-29T11:33:57.803Z,49.99
2023-01-29T11:36:57.506Z,50.01
2023-01-29T11:39:57.966Z,50.03
2023-01-29T11:42:57.684Z,50.03
2023-01-29T11:45:57.768Z,50
2023-01-29T11:49:02.540Z,50.01
2023-01-29T11:51:57.551Z,50.03
2023-01-29T11:54:57.026Z,50.02
2023-01-29T11:57:57.705Z,50.01
2023-01-29T12:00:56.912Z,49.98
2023-01-29T12:03:57.001Z,49.97
2023-01-29T12:06:57.916Z,49.98
2023-01-29T12:09:57.242Z,49.98
2023-01-29T12:12:56.966Z,50
2023-01-29T12:15:57.373Z,49.98
2023-01-29T12:18:56.756Z,50
2023-01-29T12:21:57.495Z,49.98
2023-01-29T12:24:57.664Z,50.01
2023-01-29T12:27:57.429Z,49.99
2023-01-29T12:30:57.221Z,50.02
2023-01-29T12:33:57.440Z,50.02
2023-01-29T12:36:56.780Z,49.99
2023-01-29T12:39:57.379Z,50.01
2023-01-29T12:42:57.294Z,49.99
2023-01-29T12:45:57.398Z,49.98
2023-01-29T12:48:57.151Z,50
2023-01-29T12:51:57.326Z,50.02
2023-01-29T12:54:57.697Z,50.02
2023-01-29T12:57:57.198Z,50.01
2023-01-29T13:00:58.023Z,50
2023-01-29T13:03:57.334Z,49.97
2023-01-29T13:06:57.055Z,50.04
2023-01-29T13:09:57.556Z,50.03
2023-01-29T13:12:56.949Z,50.02
2023-01-29T13:15:57.080Z,50.01
2023-01-29T13:18:56.972Z,49.99
2023-01-29T13:21:57.715Z,50
2023-01-29T13:25:04.808Z,50
2023-01-29T13:27:57.035Z,50.01
2023-01-29T13:30:58.154Z,49.99
2023-01-29T13:33:57.858Z,49.98
2023-01-29T13:36:57.867Z,49.99
2023-01-29T13:39:58.139Z,49.98
2023-01-29T13:43:00.152Z,50.01
2023-01-29T13:45:57.473Z,49.98
2023-01-29T13:48:57.477Z,49.99
2023-01-29T13:51:57.217Z,49.99
2023-01-29T13:54:57.475Z,50.01
2023-01-29T13:57:56.852Z,49.99
2023-01-29T14:00:58.182Z,50.01
2023-01-29T14:04:05.354Z,50.01
2023-01-29T14:06:57.752Z,50
2023-01-29T14:09:57.716Z,49.99
2023-01-29T14:12:57.291Z,49.98
2023-01-29T14:15:57.317Z,49.98
2023-01-29T14:18:57.762Z,49.99
2023-01-29T14:21:57.736Z,49.98
2023-01-29T14:24:56.922Z,49.99
2023-01-29T14:27:57.864Z,50.01
2023-01-29T14:30:57.930Z,50
2023-01-29T14:33:57.525Z,49.99
2023-01-29T14:36:58.231Z,49.98
2023-01-29T14:39:58.027Z,50
2023-01-29T14:42:57.778Z,49.99
2023-01-29T14:45:56.925Z,49.98
2023-01-29T14:48:57.623Z,49.98
2023-01-29T14:51:57.503Z,49.99
2023-01-29T14:54:57.707Z,50
2023-01-29T14:57:57.430Z,49.99
2023-01-29T15:00:57.770Z,50.02
2023-01-29T15:03:57.396Z,50.05
2023-01-29T15:06:57.305Z,50.01
2023-01-29T15:10:07.896Z,50.01
2023-01-29T15:12:57.645Z,49.99
2023-01-29T15:15:57.541Z,50.01
2023-01-29T15:18:57.367Z,50
2023-01-29T15:21:56.993Z,49.99
2023-01-29T15:24:58.317Z,49.98
2023-01-29T15:27:57.163Z,49.99
2023-01-29T15:30:57.784Z,50.02
2023-01-29T15:33:57.680Z,49.99
2023-01-29T15:36:57.138Z,49.96
2023-01-29T15:39:57.905Z,49.97
2023-01-29T15:42:57.486Z,49.99
2023-01-29T15:45:57.404Z,49.99
2023-01-29T15:48:58.275Z,49.99
2023-01-29T15:51:57.883Z,49.99
2023-01-29T15:54:57.827Z,49.96
2023-01-29T15:57:57.906Z,50
2023-01-29T16:00:57.620Z,50
2023-01-29T16:03:59.489Z,50.05
2023-01-29T16:06:57.471Z,50.03
2023-01-29T16:09:57.320Z,50.01
2023-01-29T16:12:57.768Z,49.98
2023-01-29T16:15:57.506Z,50.01
2023-01-29T16:19:00.749Z,50
2023-01-29T16:21:57.466Z,50
2023-01-29T16:24:57.105Z,50
2023-01-29T16:27:57.486Z,50
2023-01-29T16:30:57.541Z,50
2023-01-29T16:33:57.733Z,50
2023-01-29T16:36:57.713Z,50
2023-01-29T16:39:57.131Z,50
2023-01-29T16:42:58.038Z,50
2023-01-29T16:45:57.559Z,50
2023-01-29T16:48:57.177Z,50
2023-01-29T16:51:56.991Z,50
2023-01-29T16:54:57.705Z,50
2023-01-29T16:57:57.896Z,50
2023-01-29T17:00:57.894Z,50
2023-01-29T17:03:57.889Z,50
2023-01-29T17:07:02.916Z,50
2023-01-29T17:09:57.965Z,50
2023-01-29T17:12:57.735Z,50
2023-01-29T17:15:57.653Z,50
2023-01-29T17:18:57.000Z,50
2023-01-29T17:21:57.751Z,50
2023-01-29T17:24:57.790Z,50
2023-01-29T17:27:57.468Z,50
2023-01-29T17:31:06.377Z,50
2023-01-29T17:33:57.230Z,50
2023-01-29T17:36:56.716Z,50
2023-01-29T17:39:57.643Z,50
2023-01-29T17:42:57.191Z,50
2023-01-29T17:45:57.865Z,50
2023-01-29T17:48:57.198Z,50
2023-01-29T17:51:57.050Z,50
2023-01-29T17:54:57.189Z,50
2023-01-29T17:57:57.076Z,50
2023-01-29T18:00:58.133Z,50
2023-01-29T18:03:57.604Z,50
2023-01-29T18:06:57.383Z,50
2023-01-29T18:09:58.134Z,50
2023-01-29T18:12:57.750Z,50
2023-01-29T18:15:57.340Z,50
2023-01-29T18:18:56.802Z,50
2023-01-29T18:21:58.411Z,50
2023-01-29T18:24:57.619Z,50
2023-01-29T18:27:57.135Z,50
2023-01-29T18:30:57.638Z,50
2023-01-29T18:33:57.715Z,50
2023-01-29T18:36:57.543Z,50
2023-01-29T18:39:57.527Z,50
2023-01-29T18:42:57.429Z,50
2023-01-29T18:45:57.445Z,50
2023-01-29T18:48:57.747Z,50
2023-01-29T18:51:57.172Z,50
2023-01-29T18:54:58.196Z,50
2023-01-29T18:58:28.484Z,50
2023-01-29T19:01:25.426Z,50
2023-01-29T19:03:57.407Z,50
2023-01-29T19:06:57.238Z,50
2023-01-29T19:09:58.078Z,50
2023-01-29T19:12:57.984Z,50
2023-01-29T19:15:58.136Z,50
2023-01-29T19:18:57.137Z,50
2023-01-29T19:21:58.126Z,50
2023-01-29T19:24:57.973Z,50
2023-01-29T19:27:57.403Z,50
2023-01-29T19:30:57.765Z,50
2023-01-29T19:33:57.352Z,50
2023-01-29T19:36:57.288Z,50
2023-01-29T19:39:57.200Z,50
2023-01-29T19:42:57.539Z,50
2023-01-29T19:45:58.465Z,50
2023-01-29T19:48:57.480Z,50
2023-01-29T19:51:57.327Z,50
2023-01-29T19:54:57.259Z,50
2023-01-29T19:57:57.153Z,50
2023-01-29T20:00:57.640Z,50
2023-01-29T20:03:57.394Z,50
2023-01-29T20:06:57.535Z,50
2023-01-29T20:09:57.803Z,50
2023-01-29T20:12:57.598Z,50
2023-01-29T20:15:57.401Z,50
2023-01-29T20:19:13.161Z,50
2023-01-29T20:21:57.203Z,50
2023-01-29T20:24:57.625Z,50
2023-01-29T20:27:57.852Z,50
2023-01-29T20:30:57.785Z,50
2023-01-29T20:33:57.149Z,50
2023-01-29T20:36:58.004Z,50
2023-01-29T20:39:57.873Z,50
2023-01-29T20:42:57.662Z,50
2023-01-29T20:45:57.985Z,50
2023-01-29T20:48:57.658Z,50
2023-01-29T20:51:57.679Z,50
2023-01-29T20:55:02.665Z,50
2023-01-29T20:58:06.270Z,50
2023-01-29T21:00:57.440Z,50
2023-01-29T21:03:57.586Z,50
2023-01-29T21:06:57.404Z,50
2023-01-29T21:09:58.252Z,50
2023-01-29T21:12:57.421Z,50
2023-01-29T21:15:59.206Z,50
2023-01-29T21:18:57.577Z,50
2023-01-29T21:21:57.043Z,50
2023-01-29T21:24:57.476Z,50
2023-01-29T21:27:57.559Z,50
2023-01-29T21:30:58.064Z,50
2023-01-29T21:33:57.709Z,50
2023-01-29T21:36:57.525Z,50
2023-01-29T21:39:57.199Z,50
2023-01-29T21:42:58.173Z,50
2023-01-29T21:45:57.561Z,50
2023-01-29T21:48:57.833Z,50
2023-01-29T21:51:57.045Z,50
2023-01-29T21:54:57.713Z,50
2023-01-29T21:57:57.463Z,50
2023-01-29T22:01:12.653Z,50
2023-01-29T22:03:57.721Z,50
2023-01-29T22:06:56.639Z,50
2023-01-29T22:09:57.300Z,50
2023-01-29T22:12:57.705Z,50
2023-01-29T22:15:57.060Z,50
2023-01-29T22:18:57.398Z,50
2023-01-29T22:21:57.301Z,50
2023-01-29T22:24:57.343Z,50
2023-01-29T22:27:57.210Z,50
2023-01-29T22:30:57.519Z,50
2023-01-29T22:33:56.994Z,50
2023-01-29T22:36:56.900Z,50
2023-01-29T22:39:57.427Z,50
2023-01-29T22:42:57.395Z,50
2023-01-29T22:45:57.989Z,50
2023-01-29T22:48:57.986Z,50
2023-01-29T22:51:57.477Z,50
2023-01-29T22:54:56.977Z,50
2023-01-29T22:57:57.949Z,50
2023-01-29T23:00:57.380Z,50
2023-01-29T23:03:57.708Z,50
2023-01-29T23:06:57.284Z,50
2023-01-29T23:09:56.921Z,50
2023-01-29T23:12:57.708Z,50
2023-01-29T23:15:57.784Z,50
2023-01-29T23:18:57.031Z,50
2023-01-29T23:21:56.597Z,50
2023-01-29T23:24:56.899Z,50
2023-01-29T23:27:57.495Z,50
2023-01-29T23:30:57.573Z,50
2023-01-29T23:33:57.406Z,50
2023-01-29T23:36:57.416Z,50
2023-01-29T23:39:57.408Z,50
2023-01-29T23:42:57.007Z,50
2023-01-29T23:45:57.277Z,50
2023-01-29T23:48:57.257Z,50
2023-01-29T23:51:57.023Z,50
2023-01-29T23:54:57.556Z,50
2023-01-29T23:57:57.096Z,50
